Time;durP1;ratioP1;P1;durP2;ratioP2;P2;SDS_P1;SDS_P2;PMS_P1;PMS_P2;Temp;Humidity;BMP_temperature;BMP_pressure;BME280_temperature;BME280_humidity;BME280_pressure;Samples;Min_cycle;Max_cycle;Signal;HPM_P1;HPM_P2
2022/06/13 00:01:12;;;;;;;10.20;6.00;;;;;;;17.47;75.51;100673.73;1717332;82;25776;-80
2022/06/13 00:03:39;;;;;;;10.78;5.60;;;;;;;17.48;75.67;100674.57;1755584;81;25760;-81
2022/06/13 00:06:06;;;;;;;9.98;6.47;;;;;;;17.49;76.28;100680.30;1747632;81;25975;-80
2022/06/13 00:08:32;;;;;;;12.85;5.35;;;;;;;17.52;76.04;100686.11;1742491;81;25861;-80
2022/06/13 00:10:58;;;;;;;14.25;5.28;;;;;;;17.55;76.32;100687.53;1742174;81;27442;-81
2022/06/13 00:13:25;;;;;;;11.00;5.10;;;;;;;17.62;76.34;100701.27;1762250;81;25777;-82
2022/06/13 00:15:51;;;;;;;7.37;4.83;;;;;;;17.68;76.83;100711.73;1765230;81;25766;-81
2022/06/13 00:18:18;;;;;;;11.90;5.75;;;;;;;17.75;76.58;100706.22;1752949;81;25811;-82
2022/06/13 00:20:44;;;;;;;10.53;4.47;;;;;;;17.84;77.12;100721.90;1746590;81;25805;-81
2022/06/13 00:23:10;;;;;;;11.08;4.83;;;;;;;17.86;77.16;100708.95;1748886;81;27615;-82
2022/06/13 00:25:37;;;;;;;6.92;4.08;;;;;;;17.85;77.39;100705.13;1741347;82;26561;-81
2022/06/13 00:28:04;;;;;;;8.13;3.95;;;;;;;17.85;77.60;100688.86;1765010;80;25959;-81
2022/06/13 00:30:30;;;;;;;11.65;4.62;;;;;;;17.83;78.00;100682.85;1741142;82;25806;-82
2022/06/13 00:32:56;;;;;;;5.65;4.00;;;;;;;17.83;78.31;100693.69;1755154;81;25727;-81
2022/06/13 00:35:22;;;;;;;6.45;4.17;;;;;;;17.80;78.48;100693.62;1725794;82;27424;-82
2022/06/13 00:37:49;;;;;;;7.72;4.00;;;;;;;17.76;79.01;100693.78;1734825;82;25924;-82
2022/06/13 00:40:15;;;;;;;5.65;3.95;;;;;;;17.68;79.65;100707.67;1765795;81;25752;-81
2022/06/13 00:42:42;;;;;;;12.07;4.35;;;;;;;17.55;80.20;100690.24;1740992;82;26562;-81
2022/06/13 00:45:20;;;;;;;9.13;4.50;;;;;;;17.46;80.34;100685.64;1733934;82;25923;-81
2022/06/13 00:47:52;;;;;;;10.50;4.70;;;;;;;17.42;80.90;100680.39;1740923;82;27535;-81
2022/06/13 00:50:31;;;;;;;9.80;4.53;;;;;;;17.40;81.59;100680.31;1765734;81;25947;-82
2022/06/13 00:53:18;;;;;;;8.25;4.47;;;;;;;17.36;81.81;100674.54;1741277;82;25776;-82
2022/06/13 00:55:53;;;;;;;6.67;3.75;;;;;;;17.30;82.87;100657.83;1748398;81;25760;-81
2022/06/13 00:58:20;;;;;;;9.33;4.45;;;;;;;17.18;83.09;100623.65;1734541;82;25369;-81
2022/06/13 01:00:51;;;;;;;7.87;4.12;;;;;;;17.12;83.62;100607.81;1765729;80;27490;-81
2022/06/13 01:03:18;;;;;;;;;;;;;;;17.08;83.75;100600.38;1768112;80;25874;-81
2022/06/13 01:05:48;;;;;;;8.38;4.40;;;;;;;17.05;84.79;100612.48;1753274;81;25293;-81
2022/06/13 01:08:16;;;;;;;10.03;4.67;;;;;;;16.98;84.55;100622.03;1797610;79;33014;-81
2022/06/13 01:13:57;;;;;;;5.60;3.85;;;;;;;16.96;85.09;100617.89;1797126;79;27451;-81
2022/06/13 01:16:43;;;;;;;10.17;4.30;;;;;;;16.96;84.83;100613.83;1797863;79;25899;-82
2022/06/13 01:19:37;;;;;;;9.40;5.30;;;;;;;16.95;85.16;100604.92;1797511;79;26486;-81
2022/06/13 01:22:46;;;;;;;9.03;3.80;;;;;;;16.95;85.84;100610.84;1795548;79;26541;-82
2022/06/13 01:25:39;;;;;;;7.12;4.05;;;;;;;16.91;85.84;100607.75;1704552;83;25875;-80
2022/06/13 01:28:37;;;;;;;10.05;4.58;;;;;;;16.88;85.90;100588.45;1783867;79;27450;-81
2022/06/13 01:31:38;;;;;;;7.30;3.87;;;;;;;16.85;86.00;100584.87;1704980;79;25915;-81
2022/06/13 01:34:45;;;;;;;9.35;4.03;;;;;;;16.83;86.40;100586.42;1797175;79;25962;-82
2022/06/13 01:37:36;;;;;;;6.78;3.92;;;;;;;16.76;87.03;100593.81;1795552;79;25834;-82
2022/06/13 01:40:29;;;;;;;7.15;4.05;;;;;;;16.70;87.57;100589.84;1797204;79;26458;-80
2022/06/13 01:43:37;;;;;;;6.10;3.45;;;;;;;16.67;87.02;100592.47;1797300;79;27567;-82
2022/06/13 01:46:09;;;;;;;7.25;3.83;;;;;;;16.65;87.52;100591.03;1797190;79;26486;-82
2022/06/13 01:49:06;;;;;;;7.00;5.03;;;;;;;16.60;88.08;100587.66;1797321;79;25758;-82
2022/06/13 01:51:44;;;;;;;6.25;4.08;;;;;;;16.58;88.03;100589.76;1750348;79;25751;-82
2022/06/13 01:54:22;;;;;;;9.48;3.92;;;;;;;16.55;88.20;100593.45;1797165;79;26237;-82
2022/06/13 01:56:56;;;;;;;8.88;4.08;;;;;;;16.50;88.42;100585.17;1797611;79;27434;-81
2022/06/13 01:59:31;;;;;;;7.58;3.95;;;;;;;16.46;88.66;100579.37;1718550;83;26011;-81
2022/06/13 02:02:09;;;;;;;7.87;4.08;;;;;;;16.46;88.45;100569.08;1797269;79;26033;-82
2022/06/13 02:04:45;;;;;;;9.03;4.22;;;;;;;16.45;88.82;100560.65;1797564;79;25777;-81
2022/06/13 02:07:20;;;;;;;6.37;3.98;;;;;;;16.44;88.76;100561.72;1746562;79;26123;-81
2022/06/13 02:10:01;;;;;;;6.62;4.15;;;;;;;16.41;89.10;100553.53;1736658;82;28352;-81
2022/06/13 02:12:31;;;;;;;9.83;4.17;;;;;;;16.39;89.30;100544.81;1740283;81;25963;-82
2022/06/13 02:15:08;;;;;;;4.67;3.60;;;;;;;16.37;89.33;100539.33;1736809;82;25913;-82
2022/06/13 02:17:46;;;;;;;10.53;4.05;;;;;;;16.36;89.87;100539.05;1735881;82;26840;-81
2022/06/13 02:20:19;;;;;;;9.43;4.60;;;;;;;16.35;89.71;100540.09;1728948;82;25794;-81
2022/06/13 02:23:02;;;;;;;8.28;3.98;;;;;;;16.34;89.54;100539.25;1728678;82;28272;-81
2022/06/13 02:25:45;;;;;;;6.35;4.28;;;;;;;16.36;89.93;100542.55;1729214;82;26014;-81
2022/06/13 02:28:36;;;;;;;9.13;4.03;;;;;;;16.35;89.45;100546.33;1728950;82;25809;-81
2022/06/13 02:31:12;;;;;;;7.97;3.35;;;;;;;16.39;89.40;100531.30;1724675;82;25853;-82
2022/06/13 02:33:47;;;;;;;10.18;4.60;;;;;;;16.40;89.21;100527.53;1747065;81;25741;-80
2022/06/13 02:36:33;;;;;;;7.78;3.75;;;;;;;16.40;89.55;100524.83;1725285;81;27498;-80
2022/06/13 02:39:05;;;;;;;9.13;4.28;;;;;;;16.37;89.35;100525.81;1658462;82;25975;-81
2022/06/13 02:41:37;;;;;;;9.55;3.75;;;;;;;16.36;89.14;100520.12;1733698;81;25764;-81
2022/06/13 02:44:15;;;;;;;7.25;3.90;;;;;;;16.38;89.05;100516.67;1743056;81;25823;-81
2022/06/13 02:46:47;;;;;;;6.65;3.90;;;;;;;16.41;89.08;100521.09;1734860;81;27264;-82
2022/06/13 02:49:25;;;;;;;6.92;4.20;;;;;;;16.47;89.05;100522.88;1756371;81;28540;-81
2022/06/13 02:52:15;;;;;;;6.75;4.05;;;;;;;16.51;88.99;100527.36;1731472;81;25911;-81
2022/06/13 02:54:58;;;;;;;7.22;3.83;;;;;;;16.54;88.92;100530.94;1729117;82;25370;-82
2022/06/13 02:57:51;;;;;;;7.78;4.15;;;;;;;16.58;88.62;100530.27;1737303;82;26743;-80
2022/06/13 03:00:44;;;;;;;7.37;4.25;;;;;;;16.61;88.37;100530.34;1734396;82;25721;-81
2022/06/13 03:03:52;;;;;;;7.15;4.10;;;;;;;16.65;88.31;100537.77;1722428;82;27649;-81
2022/06/13 03:06:33;;;;;;;7.47;4.95;;;;;;;16.65;88.15;100537.77;1737403;81;25528;-81
2022/06/13 03:09:18;;;;;;;7.05;4.22;;;;;;;16.65;88.31;100540.48;1710971;83;25329;-80
2022/06/13 03:11:50;;;;;;;4.08;3.45;;;;;;;16.68;88.18;100539.20;1704344;84;26669;-81
2022/06/13 03:15:01;;;;;;;6.78;4.33;;;;;;;16.71;88.35;100546.84;1735635;81;26105;-81
2022/06/13 03:17:48;;;;;;;7.85;4.00;;;;;;;16.74;87.98;100535.58;1735471;82;28332;-81
2022/06/13 03:20:19;;;;;;;6.12;3.85;;;;;;;16.79;88.00;100541.95;1710000;82;25900;-81
2022/06/13 03:23:00;;;;;;;7.53;4.00;;;;;;;16.85;87.95;100545.64;1735158;81;25600;-81
2022/06/13 03:25:59;;;;;;;6.50;4.08;;;;;;;16.88;87.68;100549.22;1735278;81;25972;-81
2022/06/13 03:28:40;;;;;;;6.50;3.33;;;;;;;16.91;87.62;100552.28;1735396;82;25787;-81
2022/06/13 03:31:10;;;;;;;;;;;;;;;16.93;87.34;100554.27;1736787;82;28368;-80
2022/06/13 03:33:41;;;;;;;4.87;3.87;;;;;;;16.94;87.35;100558.60;1709829;82;26808;-81
2022/06/13 03:36:32;;;;;;;6.37;3.65;;;;;;;16.91;86.95;100554.98;1740253;82;25755;-81
2022/06/13 03:39:28;;;;;;;7.70;3.85;;;;;;;16.94;86.89;100554.55;1725399;82;25815;-81
2022/06/13 03:42:10;;;;;;;7.12;3.62;;;;;;;16.97;86.82;100558.67;1740276;81;25925;-81
2022/06/13 03:44:47;;;;;;;7.15;3.98;;;;;;;17.02;86.69;100564.76;1739889;81;27471;-81
2022/06/13 03:47:50;;;;;;;5.20;3.72;;;;;;;17.06;86.77;100568.13;1740295;82;26345;-81
2022/06/13 03:50:31;;;;;;;10.53;4.08;;;;;;;17.11;86.66;100574.22;1718577;83;25876;-81
2022/06/13 03:53:24;;;;;;;;;;;;;;;17.14;86.74;100577.28;1696494;84;26164;-81
2022/06/13 03:56:12;;;;;;;6.42;4.42;;;;;;;17.20;87.32;100572.29;1733114;82;25969;-80
2022/06/13 03:58:46;;;;;;;5.72;3.70;;;;;;;17.26;87.54;100564.59;1734781;82;27473;-82
2022/06/13 04:01:32;;;;;;;6.20;3.72;;;;;;;17.35;87.60;100569.15;1737211;80;25821;-81
2022/06/13 04:04:01;;;;;;;6.53;4.40;;;;;;;17.44;87.58;100571.31;1714160;81;25692;-82
2022/06/13 04:06:38;;;;;;;10.93;4.28;;;;;;;17.47;87.73;100574.89;1727766;81;25870;-81
2022/06/13 04:09:24;;;;;;;6.30;3.67;;;;;;;17.51;87.74;100573.39;1739902;82;26543;-82
2022/06/13 04:12:14;;;;;;;6.30;3.98;;;;;;;17.57;87.74;100580.62;1740368;82;27603;-81
2022/06/13 04:15:06;;;;;;;5.05;4.12;;;;;;;17.59;87.50;100569.02;1739944;81;25828;-82
2022/06/13 04:18:20;;;;;;;5.70;4.03;;;;;;;17.64;87.72;100555.58;1740344;81;26007;-82
2022/06/13 04:21:23;;;;;;;7.45;4.85;;;;;;;17.70;87.77;100557.38;1740276;81;26578;-82
2022/06/13 04:24:47;;;;;;;8.68;4.62;;;;;;;17.77;87.58;100549.11;1740135;82;26092;-81
2022/06/13 04:27:28;;;;;;;9.08;4.90;;;;;;;17.87;87.61;100543.13;1740631;82;27105;-81
2022/06/13 04:30:09;;;;;;;6.83;4.70;;;;;;;17.94;87.64;100538.41;1740290;81;25872;-81
2022/06/13 04:32:41;;;;;;;6.22;4.47;;;;;;;17.96;87.54;100535.77;1740072;81;25786;-82
2022/06/13 04:35:08;;;;;;;7.03;4.35;;;;;;;17.98;87.25;100533.65;1740146;81;26467;-81
2022/06/13 04:37:38;;;;;;;8.30;4.20;;;;;;;17.99;87.19;100530.38;1740398;81;25797;-81
2022/06/13 04:40:09;;;;;;;7.62;4.65;;;;;;;17.98;87.09;100524.16;1740320;81;28356;-82
2022/06/13 04:42:39;;;;;;;7.20;4.37;;;;;;;18.00;86.88;100530.17;1740186;82;25749;-81
2022/06/13 04:45:20;;;;;;;5.47;4.42;;;;;;;18.03;86.78;100526.97;1739993;81;25726;-81
2022/06/13 04:47:49;;;;;;;8.08;4.45;;;;;;;18.07;86.73;100521.36;1739086;81;26275;-81
2022/06/13 04:50:23;;;;;;;5.97;4.47;;;;;;;18.10;86.73;100514.13;1739941;81;25786;-81
2022/06/13 04:52:52;;;;;;;8.18;4.65;;;;;;;18.14;86.72;100514.45;1739895;81;27540;-81
2022/06/13 04:55:23;;;;;;;6.58;4.60;;;;;;;18.17;86.53;100507.22;1740075;82;25825;-81
2022/06/13 04:57:50;;;;;;;9.73;4.87;;;;;;;18.21;86.49;100501.08;1764629;81;25750;-81
2022/06/13 05:00:17;;;;;;;10.00;5.25;;;;;;;18.24;86.56;100498.43;1738712;81;26096;-81
2022/06/13 05:02:51;;;;;;;8.10;4.78;;;;;;;18.29;86.56;100503.94;1735181;82;25515;-81
2022/06/13 05:05:43;;;;;;;9.28;4.85;;;;;;;18.31;86.45;100496.39;1751967;81;28759;-82
2022/06/13 05:08:27;;;;;;;16.20;5.58;;;;;;;18.36;86.64;100493.80;1737404;81;26478;-81
2022/06/13 05:10:59;;;;;;;7.37;5.03;;;;;;;18.40;86.54;100486.83;1740545;82;25829;-82
2022/06/13 05:13:25;;;;;;;8.70;4.67;;;;;;;18.45;86.40;100493.75;1734556;82;26760;-81
2022/06/13 05:15:57;;;;;;;8.23;5.20;;;;;;;18.50;86.51;100483.54;1752540;81;25358;-81
2022/06/13 05:18:56;;;;;;;12.20;5.92;;;;;;;18.53;86.36;100483.88;1727374;82;27437;-81
2022/06/13 05:21:31;;;;;;;11.12;5.85;;;;;;;18.55;86.28;100481.73;1708672;81;25897;-81
2022/06/13 05:24:29;;;;;;;10.03;5.47;;;;;;;18.54;86.16;100474.65;1717924;82;25737;-81
2022/06/13 05:26:55;;;;;;;11.48;6.12;;;;;;;18.59;86.31;100473.41;1750520;79;26641;-82
2022/06/13 05:29:21;;;;;;;14.20;6.25;;;;;;;18.62;85.91;100476.17;1751548;81;25754;-81
2022/06/13 05:31:47;;;;;;;8.78;5.62;;;;;;;18.61;85.63;100476.69;1748885;80;27627;-82
2022/06/13 05:34:22;;;;;;;11.18;5.97;;;;;;;18.62;85.67;100473.45;1764972;81;26542;-81
2022/06/13 05:36:48;;;;;;;10.13;6.60;;;;;;;18.64;85.85;100476.75;1763853;81;25805;-82
2022/06/13 05:39:15;;;;;;;9.85;6.40;;;;;;;18.65;85.96;100485.20;1740737;82;25918;-81
2022/06/13 05:41:41;;;;;;;12.95;6.95;;;;;;;18.68;85.99;100476.55;1752671;81;25946;-82
2022/06/13 05:44:09;;;;;;;12.33;6.87;;;;;;;18.68;85.84;100476.03;1739351;81;28405;-81
2022/06/13 05:46:38;;;;;;;11.10;6.92;;;;;;;18.72;85.82;100470.93;1702332;82;25900;-82
2022/06/13 05:49:06;;;;;;;11.05;7.28;;;;;;;18.74;85.82;100469.62;1754529;81;26176;-82
2022/06/13 05:51:32;;;;;;;10.55;7.65;;;;;;;18.82;86.17;100467.06;1763390;80;26441;-82
2022/06/13 05:54:00;;;;;;;12.40;8.30;;;;;;;18.88;86.06;100466.09;1764789;80;25997;-82
2022/06/13 05:56:27;;;;;;;10.35;7.33;;;;;;;18.89;85.62;100469.08;1741157;82;27498;-81
2022/06/13 05:58:54;;;;;;;12.30;8.15;;;;;;;18.90;85.61;100467.50;1743339;81;25849;-82
2022/06/13 06:01:21;;;;;;;10.60;7.62;;;;;;;18.96;85.75;100462.44;1741033;81;25954;-81
2022/06/13 06:03:47;;;;;;;12.43;7.75;;;;;;;19.00;85.69;100461.41;1752011;81;26575;-81
2022/06/13 06:06:24;;;;;;;13.20;7.92;;;;;;;19.05;85.80;100461.51;1730903;82;25693;-81
2022/06/13 06:08:54;;;;;;;13.95;8.75;;;;;;;19.07;85.53;100453.41;1737869;82;28170;-82
2022/06/13 06:11:22;;;;;;;14.00;8.55;;;;;;;19.09;85.55;100445.01;1765086;80;25854;-82
2022/06/13 06:13:48;;;;;;;12.65;8.20;;;;;;;19.10;85.34;100449.36;1728711;82;25297;-82
2022/06/13 06:16:19;;;;;;;13.93;8.55;;;;;;;19.13;85.33;100448.88;1739700;81;26264;-81
2022/06/13 06:18:47;;;;;;;8.73;7.35;;;;;;;19.15;85.25;100450.28;1757311;80;25350;-82
2022/06/13 06:21:14;;;;;;;9.55;8.33;;;;;;;19.17;85.29;100446.78;1764926;80;27434;-82
2022/06/13 06:23:40;;;;;;;17.10;9.10;;;;;;;19.21;85.40;100442.50;1765274;81;26516;-82
2022/06/13 06:26:09;;;;;;;10.10;8.28;;;;;;;19.27;85.31;100446.11;1739868;80;25817;-82
2022/06/13 06:28:35;;;;;;;11.55;9.38;;;;;;;19.30;85.35;100438.02;1728560;81;26708;-81
2022/06/13 06:31:10;;;;;;;13.60;9.35;;;;;;;19.35;85.42;100434.06;1765026;80;25927;-81
2022/06/13 06:33:32;;;;;;;11.43;8.73;;;;;;;19.41;85.41;100422.20;1753886;81;28277;-81
2022/06/13 06:35:59;;;;;;;10.28;8.35;;;;;;;19.48;85.51;100419.58;1749892;81;26094;-82
2022/06/13 06:38:28;;;;;;;11.73;8.83;;;;;;;19.56;85.47;100417.82;1727923;82;25887;-82
2022/06/13 06:40:55;;;;;;;13.10;9.43;;;;;;;19.65;85.49;100413.58;1756193;81;25780;-80
2022/06/13 06:43:22;;;;;;;13.30;8.70;;;;;;;19.70;85.21;100404.68;1752157;81;26603;-82
2022/06/13 06:45:48;;;;;;;13.60;9.55;;;;;;;19.76;85.11;100401.78;1756521;80;27458;-81
2022/06/13 06:48:20;;;;;;;12.78;9.40;;;;;;;19.84;85.25;100400.02;1725707;82;25807;-81
2022/06/13 06:50:49;;;;;;;17.48;10.13;;;;;;;19.90;85.32;100403.08;1727192;82;25726;-81
2022/06/13 06:53:17;;;;;;;16.62;9.75;;;;;;;19.96;84.78;100410.22;1737237;82;25881;-81
2022/06/13 07:01:17;;;;;;;12.73;10.03;;;;;;;20.11;84.28;100417.73;1716574;82;25772;-82
2022/06/13 07:03:44;;;;;;;10.60;9.60;;;;;;;20.18;84.46;100421.09;1765549;81;25907;-82
2022/06/13 07:06:12;;;;;;;12.50;10.15;;;;;;;20.22;84.46;100417.35;1728566;82;26267;-81
2022/06/13 07:08:39;;;;;;;13.32;9.83;;;;;;;20.28;84.65;100409.53;1744566;81;26076;-82
2022/06/13 07:13:54;;;;;;;14.63;10.32;;;;;;;20.37;83.65;100400.67;1733275;82;25797;-81
2022/06/13 07:16:20;;;;;;;11.33;9.25;;;;;;;20.39;83.50;100405.33;1749681;79;25802;-80
2022/06/13 07:18:47;;;;;;;18.00;13.03;;;;;;;20.41;83.40;100403.70;1741326;82;26582;-81
2022/06/13 07:21:14;;;;;;;14.95;11.70;;;;;;;20.45;83.58;100403.47;1739556;80;26062;-81
2022/06/13 07:23:40;;;;;;;15.35;10.78;;;;;;;20.49;83.55;100398.62;1764960;81;27687;-81
2022/06/13 07:26:06;;;;;;;11.12;9.70;;;;;;;20.54;83.51;100397.85;1740693;82;25788;-81
2022/06/13 07:28:33;;;;;;;11.53;9.38;;;;;;;20.58;83.64;100388.92;1760786;80;25860;-81
2022/06/13 07:30:59;;;;;;;11.73;10.10;;;;;;;20.61;83.62;100378.89;1741050;82;25924;-82
2022/06/13 07:33:25;;;;;;;12.55;10.30;;;;;;;20.67;83.61;100379.22;1765219;80;25928;-82
2022/06/13 07:35:52;;;;;;;12.20;9.70;;;;;;;20.73;83.21;100378.72;1741512;82;28350;-80
2022/06/13 07:38:18;;;;;;;11.12;9.48;;;;;;;20.79;82.93;100383.13;1736346;80;25777;-82
2022/06/13 07:40:49;;;;;;;10.55;9.45;;;;;;;20.86;82.90;100382.38;1736968;81;25346;-80
2022/06/13 07:43:32;;;;;;;10.63;9.48;;;;;;;20.91;82.75;100382.43;1746081;81;27012;-80
2022/06/13 07:46:02;;;;;;;10.65;9.55;;;;;;;21.00;83.24;100382.77;1765301;81;25751;-82
2022/06/13 07:48:31;;;;;;;11.00;9.85;;;;;;;21.09;82.50;100386.67;1753652;81;28283;-82
2022/06/13 07:50:57;;;;;;;10.32;8.30;;;;;;;21.07;81.64;100384.22;1753608;80;26124;-81
2022/06/13 07:53:24;;;;;;;9.20;8.38;;;;;;;21.06;81.12;100394.02;1741280;82;25900;-81
2022/06/13 07:55:51;;;;;;;9.63;8.55;;;;;;;21.03;80.55;100395.35;1765789;81;25740;-81
2022/06/13 07:58:22;;;;;;;13.30;8.95;;;;;;;21.01;81.07;100388.48;1741500;82;25893;-82
2022/06/13 08:00:49;;;;;;;;;;;;;;;21.03;81.30;100395.89;1768557;80;27607;-82
2022/06/13 08:03:20;;;;;;;9.43;8.53;;;;;;;21.01;81.46;100394.77;1765794;81;25926;-81
2022/06/13 08:05:47;;;;;;;9.53;8.25;;;;;;;21.02;81.49;100391.50;1740580;82;25684;-82
2022/06/13 08:08:14;;;;;;;9.10;7.60;;;;;;;21.06;81.35;100373.59;1750423;81;26231;-81
2022/06/13 08:10:42;;;;;;;9.38;7.62;;;;;;;21.07;80.68;100366.52;1735271;82;25913;-81
2022/06/13 08:13:13;;;;;;;11.30;8.50;;;;;;;21.09;80.66;100364.34;1711437;83;28276;-82
2022/06/13 08:15:39;;;;;;;8.75;7.95;;;;;;;21.13;80.82;100364.63;1735527;82;25759;-81
2022/06/13 08:18:06;;;;;;;8.40;7.60;;;;;;;21.18;80.76;100368.77;1711721;83;25592;-81
2022/06/13 08:20:34;;;;;;;11.00;7.58;;;;;;;21.23;80.91;100370.17;1735425;82;26415;-81
2022/06/13 08:23:03;;;;;;;6.70;6.12;;;;;;;21.22;80.37;100378.88;1711850;83;25924;-81
2022/06/13 08:25:33;;;;;;;8.68;7.62;;;;;;;21.24;79.94;100383.53;1735467;82;28384;-81
2022/06/13 08:28:00;;;;;;;8.13;7.05;;;;;;;21.24;79.70;100367.18;1711923;83;25788;-82
2022/06/13 08:30:35;;;;;;;8.43;7.12;;;;;;;21.27;79.92;100356.31;1734964;82;25552;-82
2022/06/13 08:33:02;;;;;;;7.50;6.80;;;;;;;21.33;80.08;100354.72;1711488;83;25940;-82
2022/06/13 08:35:28;;;;;;;7.47;6.65;;;;;;;21.40;79.53;100360.77;1735577;82;25793;-81
2022/06/13 08:37:57;;;;;;;8.48;7.67;;;;;;;21.45;79.51;100382.58;1711755;83;27438;-80
2022/06/13 08:40:28;;;;;;;7.42;6.72;;;;;;;21.42;79.24;100383.66;1735166;82;25902;-81
2022/06/13 08:43:00;;;;;;;6.87;6.17;;;;;;;21.48;79.61;100392.14;1711250;83;26351;-80
2022/06/13 08:45:42;;;;;;;8.83;6.03;;;;;;;21.50;79.05;100386.70;1733910;82;26062;-81
2022/06/13 08:48:26;;;;;;;7.00;5.95;;;;;;;21.52;79.10;100385.08;1710620;83;26038;-80
2022/06/13 08:51:01;;;;;;;6.60;5.50;;;;;;;21.50;78.73;100383.16;1727638;82;27446;-81
2022/06/13 08:53:45;;;;;;;6.37;5.72;;;;;;;21.51;78.81;100386.97;1710552;83;26195;-80
2022/06/13 08:56:15;;;;;;;5.55;5.05;;;;;;;21.50;78.22;100402.23;1735773;82;25938;-82
2022/06/13 08:59:22;;;;;;;5.60;4.95;;;;;;;21.49;78.33;100408.22;1712135;83;26237;-82
2022/06/13 09:01:40;;;;;;;5.72;5.12;;;;;;;21.54;78.43;100406.07;1725165;82;26037;-81
2022/06/13 09:04:30;;;;;;;4.53;3.92;;;;;;;21.58;78.58;100398.20;1711915;83;27457;-81
2022/06/13 09:07:11;;;;;;;3.40;3.10;;;;;;;21.61;77.95;100398.48;1735683;82;25970;-82
2022/06/13 09:09:58;;;;;;;3.83;3.52;;;;;;;21.61;76.62;100399.85;1740442;82;25653;-82
2022/06/13 09:12:32;;;;;;;4.00;3.70;;;;;;;21.55;75.57;100399.55;1765719;81;26457;-81
2022/06/13 09:15:15;;;;;;;3.72;3.12;;;;;;;21.52;75.14;100400.06;1741437;82;25845;-81
2022/06/13 09:18:02;;;;;;;3.50;3.22;;;;;;;21.49;75.34;100397.31;1733546;82;27479;-81
2022/06/13 09:20:56;;;;;;;3.00;2.80;;;;;;;21.51;75.40;100392.98;1741224;82;25728;-80
2022/06/13 09:23:39;;;;;;;4.87;3.45;;;;;;;21.55;75.28;100400.08;1765305;81;26619;-82
2022/06/13 09:26:19;;;;;;;3.45;3.15;;;;;;;21.51;74.35;100397.08;1741537;82;26535;-80
2022/06/13 09:29:14;;;;;;;3.45;3.10;;;;;;;21.42;74.68;100393.19;1755830;81;25726;-80
2022/06/13 09:31:44;;;;;;;5.17;3.30;;;;;;;21.39;74.83;100397.80;1718790;82;28191;-81
2022/06/13 09:34:32;;;;;;;3.67;3.22;;;;;;;21.42;75.38;100397.28;1765509;81;25294;-81
2022/06/13 09:37:16;;;;;;;3.52;3.22;;;;;;;21.46;75.21;100393.77;1737627;81;25813;-81
2022/06/13 09:39:42;;;;;;;4.50;3.30;;;;;;;21.50;74.95;100388.61;1730804;82;26669;-80
2022/06/13 09:42:34;;;;;;;3.60;3.30;;;;;;;21.57;75.28;100388.38;1735757;81;25783;-81
2022/06/13 09:45:23;;;;;;;3.95;3.00;;;;;;;21.61;74.61;100382.13;1740883;82;27641;-81
2022/06/13 09:48:23;;;;;;;3.60;3.12;;;;;;;21.67;73.96;100377.52;1765311;80;26542;-81
2022/06/13 09:51:16;;;;;;;5.05;3.10;;;;;;;21.74;74.23;100376.75;1754176;80;25760;-80
2022/06/13 09:53:48;;;;;;;3.60;3.30;;;;;;;21.84;73.87;100368.09;1711358;82;25782;-81
2022/06/13 09:56:32;;;;;;;4.28;3.83;;;;;;;21.93;74.51;100365.15;1751515;80;25339;-80
2022/06/13 09:59:27;;;;;;;7.40;3.55;;;;;;;21.98;73.72;100360.26;1736784;81;27457;-82
2022/06/13 10:02:20;;;;;;;6.37;3.60;;;;;;;22.05;73.83;100356.19;1735467;82;26544;-80
2022/06/13 10:05:10;;;;;;;5.12;3.33;;;;;;;22.02;72.64;100352.64;1756148;80;25741;-80
2022/06/13 10:08:06;;;;;;;3.72;3.08;;;;;;;22.00;72.37;100353.99;1744181;81;25532;-81
2022/06/13 10:10:47;;;;;;;4.30;3.70;;;;;;;21.97;72.22;100347.70;1753939;81;25873;-81
2022/06/13 10:13:19;;;;;;;;;;;;;;;21.98;72.17;100343.33;1754959;81;27697;-81
2022/06/13 10:16:12;;;;;;;4.60;3.40;;;;;;;21.98;72.27;100343.33;1753119;81;26688;-80
2022/06/13 10:18:59;;;;;;;7.53;3.25;;;;;;;22.00;72.54;100338.99;1754455;80;25986;-81
2022/06/13 10:21:45;;;;;;;4.00;3.52;;;;;;;22.03;72.29;100346.08;1751094;80;26547;-81
2022/06/13 10:24:25;;;;;;;3.90;3.08;;;;;;;22.05;72.51;100354.81;1739123;80;25313;-81
2022/06/13 10:27:12;;;;;;;3.72;3.33;;;;;;;22.05;72.16;100362.17;1743692;81;28352;-81
2022/06/13 10:29:50;;;;;;;6.35;2.85;;;;;;;22.00;72.33;100363.00;1731448;82;26019;-80
2022/06/13 10:32:28;;;;;;;4.55;3.60;;;;;;;22.01;72.47;100363.80;1731199;82;25999;-81
2022/06/13 10:35:19;;;;;;;4.92;3.00;;;;;;;22.01;72.06;100365.16;1733765;82;25816;-81
2022/06/13 10:38:08;;;;;;;5.35;3.45;;;;;;;22.03;71.70;100362.98;1754600;80;25766;-80
2022/06/13 10:40:34;;;;;;;4.65;3.20;;;;;;;22.08;71.56;100352.93;1722701;82;27420;-82
2022/06/13 10:43:03;;;;;;;4.97;3.20;;;;;;;22.12;71.28;100352.67;1716347;82;26411;-80
2022/06/13 10:45:29;;;;;;;3.45;2.98;;;;;;;22.15;70.78;100345.30;1767049;80;25802;-80
2022/06/13 10:48:24;;;;;;;3.25;2.60;;;;;;;22.17;70.66;100338.23;1753531;80;25784;-80
2022/06/13 10:51:01;;;;;;;3.62;2.65;;;;;;;22.20;70.58;100322.13;1725819;82;25803;-81
2022/06/13 10:53:58;;;;;;;3.02;2.70;;;;;;;22.29;70.87;100322.41;1739560;81;27609;-80
2022/06/13 10:56:38;;;;;;;3.65;2.55;;;;;;;22.39;71.06;100311.50;1762507;81;25860;-81
2022/06/13 10:59:04;;;;;;;3.12;2.70;;;;;;;22.49;70.50;100307.98;1737272;82;25317;-82
2022/06/13 11:01:32;;;;;;;4.12;2.35;;;;;;;22.55;69.62;100313.72;1748483;81;26350;-81
2022/06/13 11:04:19;;;;;;;5.47;2.85;;;;;;;22.60;69.53;100311.86;1740794;82;25744;-82
2022/06/13 11:06:57;;;;;;;4.75;2.70;;;;;;;22.70;70.36;100304.20;1750570;80;27204;-81
2022/06/13 11:09:46;;;;;;;3.17;2.87;;;;;;;22.75;69.61;100296.81;1728988;82;26456;-80
2022/06/13 11:12:24;;;;;;;3.47;3.00;;;;;;;22.76;68.97;100286.17;1739342;81;26018;-81
2022/06/13 11:23:57;;;;;;;4.03;2.90;;;;;;;22.48;68.16;100299.51;1756685;81;25895;-81
2022/06/13 11:29:18;;;;;;;3.40;3.12;;;;;;;22.21;67.76;100301.13;1765287;81;25765;-81
2022/06/13 11:31:53;;;;;;;4.03;2.92;;;;;;;22.08;67.38;100296.18;1730141;81;25751;-80
2022/06/13 11:34:34;;;;;;;3.55;2.80;;;;;;;21.98;67.96;100294.23;1730912;80;28479;-80
2022/06/13 11:37:23;;;;;;;3.58;2.65;;;;;;;21.96;68.42;100287.44;1765656;79;26517;-81
2022/06/13 11:39:52;;;;;;;4.55;2.85;;;;;;;21.84;68.60;100292.28;1744511;81;25721;-80
2022/06/13 11:42:26;;;;;;;3.83;2.87;;;;;;;21.76;68.72;100292.24;1728319;81;26448;-81
2022/06/13 11:45:07;;;;;;;4.62;2.37;;;;;;;21.64;69.22;100354.33;1743823;81;25597;-81
2022/06/13 11:47:44;;;;;;;4.00;1.72;;;;;;;21.34;68.42;100319.55;1729491;82;27478;-81
2022/06/13 11:50:26;;;;;;;5.72;1.80;;;;;;;20.46;69.08;100382.83;1741853;81;26194;-81
2022/06/13 11:55:59;;;;;;;8.25;2.25;;;;;;;18.48;71.20;100428.71;1723811;82;26567;-83
2022/06/13 11:58:30;;;;;;;5.95;1.35;;;;;;;17.60;74.50;100439.28;1734877;82;25574;-81
2022/06/13 12:01:24;;;;;;;4.78;1.87;;;;;;;17.05;76.71;100427.61;1755573;80;27484;-83
2022/06/13 12:04:16;;;;;;;4.03;1.32;;;;;;;16.69;78.72;100415.07;1735727;81;25603;-80
2022/06/13 12:06:47;;;;;;;1.85;1.55;;;;;;;16.39;81.01;100406.11;1757277;81;26193;-81
2022/06/13 12:09:29;;;;;;;5.20;1.80;;;;;;;16.13;82.42;100420.28;1751594;80;25831;-81
2022/06/13 12:12:00;;;;;;;3.50;1.47;;;;;;;16.01;82.48;100425.33;1734482;82;25352;-81
2022/06/13 12:14:29;;;;;;;4.15;1.45;;;;;;;15.90;83.15;100417.45;1751857;81;28279;-82
2022/06/13 12:17:01;;;;;;;5.80;1.47;;;;;;;15.83;82.93;100428.02;1751894;80;26079;-81
2022/06/13 12:19:58;;;;;;;3.27;1.30;;;;;;;15.76;83.20;100440.23;1746046;81;25780;-81
2022/06/13 12:22:32;;;;;;;2.42;1.00;;;;;;;15.70;83.72;100447.89;1726701;82;26657;-81
2022/06/13 12:25:32;;;;;;;2.83;1.20;;;;;;;15.61;84.20;100450.57;1764773;81;26165;-83
2022/06/13 12:28:06;;;;;;;1.60;1.07;;;;;;;15.53;84.22;100447.33;1741237;82;28315;-81
2022/06/13 12:31:08;;;;;;;3.83;1.32;;;;;;;15.44;84.54;100442.73;1686176;82;25824;-82
2022/06/13 12:33:52;;;;;;;3.55;1.20;;;;;;;15.33;84.55;100435.36;1722054;82;25787;-81
2022/06/13 12:36:32;;;;;;;4.15;2.52;;;;;;;15.17;85.11;100444.00;1726358;82;26255;-82